Grant Co International Airport Moses Lake US
ICAO: KMWH
IATA: MWH
Category: Medium
Scheduled Services: No

Elevation: 1189 ft
TransAlt. 18000 ft.

Airport Communications:
APP/DEP:126.4
ATIS:119.05
CTAF:118.25
GND:121.9
SEATTLE RDO:122.4
TWR:118.25
UNICOM:122.95

KMWH Zoom In..

If you have problems with the map follow the link
https://www.worldairports.se/pages/airport.php?
ICAO=KMWH

Runways:

(A) RW 04 length 10000 ft width 100 ft
---- / hdg 36

(B) RW 09 length 3500 ft width 90 ft
---- / hdg 90

(C) RW 14L length 13503 ft width 200 ft
---- / hdg 144

(D) RW 14R length 2936 ft width 75 ft
---- / hdg 144

(E) RW 18 length 3327 ft width 75 ft
---- / hdg 180

(F) RW 22 length 10000 ft width 100 ft
---- / hdg 216

(G) RW 27 length 3500 ft width 90 ft
---- / hdg 270

(H) RW 32L length 2936 ft width 75 ft
---- / hdg 324

(I) RW 32R length 13503 ft width 200 ft
ILS 109.50 / hdg 324

(J) RW 36 length 3327 ft width 75 ft
---- / hdg 360

Location; KMWH
Day. 07 / Time. 08.52 Zulu
* Altimeter: 29.88
* Temperature: 03° c. 37.4°f.
* Wind from: 000° Speed 00 kn.
Dewpoint: 01° c.
Visibility: 5 Statute Miles.
Clouds: Overcast 4700 ft.
Conditions: Mist.

KMWH 070852Z AUTO 00000KT 5SM UP BR OVC047 03/01 A2988 RMK AO2 UPB0754RAB25E36 SLP126 P0002 60002 T00280011 58014


Wind - Calm.

 
 
jpsmedia worldairports.se 2019   terms of use